Weather at José Joaquín de Olmedo International Airport

Public forecast

Using degrees Celsius for public forecast. Weather courtesy of forecast.io.

Current aviation weather report (METAR) for José Joaquín de Olmedo International Airport

Report is more than 6 hours old.

2022/11/14 15:00 (retrieved 2 years ago)

SEGU 141500Z 22012KT 9999 BKN026 OVC100 23/19 Q1013 NOSIG RMK A2993

Aviation forecast (TAF) for José Joaquín de Olmedo International Airport

Forecast is more than 12 hours old.

2023/02/22 18:12 Correction (retrieved 1 year ago)

TAF TAF COR SEGU 221705Z 2218/2318 32007KT 9999 SCT020 BKN100 BECMG 2219/2221 BKN023 BKN100 BECMG 2222/2223 22006KT 8000 RA SCT008 BKN020 BKN090 BECMG 2302/2304 9999 NSW BECMG 2311/2313 SCT026 SCT100 TX31/2220Z TN24/2310Z